sensor_id;sensor_type;location;lat;lon;timestamp;P1;durP1;ratioP1;P2;durP2;ratioP2
16127;SDS011;8168;49.036;7.690;2022-09-12T00:01:22;2.30;;;2.10;;
16127;SDS011;8168;49.036;7.690;2022-09-12T00:03:56;3.13;;;2.70;;
16127;SDS011;8168;49.036;7.690;2022-09-12T00:06:37;2.93;;;2.63;;
16127;SDS011;8168;49.036;7.690;2022-09-12T00:09:11;4.27;;;2.43;;
16127;SDS011;8168;49.036;7.690;2022-09-12T00:11:43;2.70;;;2.50;;
16127;SDS011;8168;49.036;7.690;2022-09-12T00:14:17;5.67;;;2.70;;
16127;SDS011;8168;49.036;7.690;2022-09-12T00:16:48;3.00;;;2.70;;
16127;SDS011;8168;49.036;7.690;2022-09-12T00:19:18;3.50;;;2.90;;
16127;SDS011;8168;49.036;7.690;2022-09-12T00:21:49;3.33;;;2.43;;
16127;SDS011;8168;49.036;7.690;2022-09-12T00:24:20;4.03;;;2.50;;
16127;SDS011;8168;49.036;7.690;2022-09-12T00:26:51;2.60;;;2.40;;
16127;SDS011;8168;49.036;7.690;2022-09-12T00:29:21;2.70;;;2.37;;
16127;SDS011;8168;49.036;7.690;2022-09-12T00:31:52;4.27;;;3.27;;
16127;SDS011;8168;49.036;7.690;2022-09-12T00:34:22;4.80;;;2.53;;
16127;SDS011;8168;49.036;7.690;2022-09-12T00:36:53;3.90;;;2.47;;
16127;SDS011;8168;49.036;7.690;2022-09-12T00:39:27;5.83;;;5.00;;
16127;SDS011;8168;49.036;7.690;2022-09-12T00:41:57;5.43;;;3.27;;
16127;SDS011;8168;49.036;7.690;2022-09-12T00:47:09;3.10;;;2.80;;
16127;SDS011;8168;49.036;7.690;2022-09-12T00:49:48;4.97;;;3.70;;
16127;SDS011;8168;49.036;7.690;2022-09-12T00:52:28;3.37;;;2.77;;
16127;SDS011;8168;49.036;7.690;2022-09-12T00:57:44;3.00;;;2.70;;
16127;SDS011;8168;49.036;7.690;2022-09-12T01:00:26;4.50;;;3.17;;
16127;SDS011;8168;49.036;7.690;2022-09-12T01:02:59;3.33;;;3.03;;
16127;SDS011;8168;49.036;7.690;2022-09-12T01:05:37;3.43;;;3.10;;
16127;SDS011;8168;49.036;7.690;2022-09-12T01:08:15;6.93;;;5.30;;
16127;SDS011;8168;49.036;7.690;2022-09-12T01:10:46;7.33;;;3.83;;
16127;SDS011;8168;49.036;7.690;2022-09-12T01:13:18;5.90;;;3.30;;
16127;SDS011;8168;49.036;7.690;2022-09-12T01:15:48;5.60;;;3.53;;
16127;SDS011;8168;49.036;7.690;2022-09-12T01:24:05;5.30;;;3.40;;
16127;SDS011;8168;49.036;7.690;2022-09-12T01:26:56;6.00;;;4.40;;
16127;SDS011;8168;49.036;7.690;2022-09-12T01:29:57;5.37;;;3.77;;
16127;SDS011;8168;49.036;7.690;2022-09-12T01:32:39;4.60;;;3.90;;
16127;SDS011;8168;49.036;7.690;2022-09-12T01:38:03;4.60;;;3.97;;
16127;SDS011;8168;49.036;7.690;2022-09-12T01:40:44;4.30;;;3.50;;
16127;SDS011;8168;49.036;7.690;2022-09-12T01:46:09;6.67;;;4.03;;
16127;SDS011;8168;49.036;7.690;2022-09-12T01:48:53;5.07;;;4.10;;
16127;SDS011;8168;49.036;7.690;2022-09-12T01:54:09;4.57;;;3.33;;
16127;SDS011;8168;49.036;7.690;2022-09-12T01:56:46;5.93;;;3.60;;
16127;SDS011;8168;49.036;7.690;2022-09-12T01:59:24;4.33;;;3.93;;
16127;SDS011;8168;49.036;7.690;2022-09-12T02:02:09;3.80;;;3.40;;
16127;SDS011;8168;49.036;7.690;2022-09-12T02:04:46;4.17;;;3.27;;
16127;SDS011;8168;49.036;7.690;2022-09-12T02:07:22;3.57;;;3.27;;
16127;SDS011;8168;49.036;7.690;2022-09-12T02:12:48;3.57;;;3.20;;
16127;SDS011;8168;49.036;7.690;2022-09-12T02:15:28;4.23;;;3.83;;
16127;SDS011;8168;49.036;7.690;2022-09-12T02:18:04;4.10;;;3.70;;
16127;SDS011;8168;49.036;7.690;2022-09-12T02:20:36;5.60;;;4.13;;
16127;SDS011;8168;49.036;7.690;2022-09-12T02:23:09;6.37;;;4.30;;
16127;SDS011;8168;49.036;7.690;2022-09-12T02:25:44;5.70;;;4.07;;
16127;SDS011;8168;49.036;7.690;2022-09-12T02:28:19;8.83;;;4.57;;
16127;SDS011;8168;49.036;7.690;2022-09-12T02:31:41;5.23;;;4.00;;
16127;SDS011;8168;49.036;7.690;2022-09-12T02:34:06;6.93;;;3.67;;
16127;SDS011;8168;49.036;7.690;2022-09-12T02:39:24;5.07;;;4.00;;
16127;SDS011;8168;49.036;7.690;2022-09-12T02:41:55;4.40;;;4.00;;
16127;SDS011;8168;49.036;7.690;2022-09-12T02:44:30;5.20;;;3.80;;
16127;SDS011;8168;49.036;7.690;2022-09-12T02:47:13;6.10;;;3.47;;
16127;SDS011;8168;49.036;7.690;2022-09-12T02:49:52;4.47;;;3.67;;
16127;SDS011;8168;49.036;7.690;2022-09-12T02:52:24;5.07;;;3.70;;
16127;SDS011;8168;49.036;7.690;2022-09-12T02:54:56;6.20;;;3.30;;
16127;SDS011;8168;49.036;7.690;2022-09-12T02:57:27;5.30;;;3.67;;
16127;SDS011;8168;49.036;7.690;2022-09-12T02:59:58;4.63;;;3.50;;
16127;SDS011;8168;49.036;7.690;2022-09-12T03:05:33;4.93;;;3.40;;
16127;SDS011;8168;49.036;7.690;2022-09-12T03:17:34;19.90;;;5.10;;
16127;SDS011;8168;49.036;7.690;2022-09-12T03:23:32;10.13;;;5.50;;
16127;SDS011;8168;49.036;7.690;2022-09-12T03:29:03;4.10;;;3.70;;
16127;SDS011;8168;49.036;7.690;2022-09-12T03:31:36;5.00;;;3.40;;
16127;SDS011;8168;49.036;7.690;2022-09-12T03:34:08;4.00;;;3.50;;
16127;SDS011;8168;49.036;7.690;2022-09-12T03:36:42;10.13;;;4.07;;
16127;SDS011;8168;49.036;7.690;2022-09-12T03:39:12;9.40;;;3.70;;
16127;SDS011;8168;49.036;7.690;2022-09-12T03:41:43;9.53;;;3.40;;
16127;SDS011;8168;49.036;7.690;2022-09-12T03:44:14;5.63;;;3.87;;
16127;SDS011;8168;49.036;7.690;2022-09-12T03:46:44;5.30;;;3.97;;
16127;SDS011;8168;49.036;7.690;2022-09-12T03:49:15;7.23;;;4.90;;
16127;SDS011;8168;49.036;7.690;2022-09-12T03:51:46;7.40;;;4.43;;
16127;SDS011;8168;49.036;7.690;2022-09-12T03:54:17;7.23;;;4.40;;
16127;SDS011;8168;49.036;7.690;2022-09-12T03:56:47;6.10;;;3.90;;
16127;SDS011;8168;49.036;7.690;2022-09-12T03:59:18;9.90;;;3.93;;
16127;SDS011;8168;49.036;7.690;2022-09-12T04:01:49;4.37;;;3.67;;
16127;SDS011;8168;49.036;7.690;2022-09-12T04:04:20;12.33;;;3.77;;
16127;SDS011;8168;49.036;7.690;2022-09-12T04:06:50;5.43;;;4.13;;
16127;SDS011;8168;49.036;7.690;2022-09-12T04:09:21;5.83;;;4.43;;
16127;SDS011;8168;49.036;7.690;2022-09-12T04:11:52;5.43;;;3.77;;
16127;SDS011;8168;49.036;7.690;2022-09-12T04:14:22;4.27;;;3.47;;
16127;SDS011;8168;49.036;7.690;2022-09-12T04:16:53;4.60;;;3.40;;
16127;SDS011;8168;49.036;7.690;2022-09-12T04:19:24;5.13;;;3.33;;
16127;SDS011;8168;49.036;7.690;2022-09-12T04:21:55;6.40;;;2.80;;
16127;SDS011;8168;49.036;7.690;2022-09-12T04:24:26;3.53;;;3.17;;
16127;SDS011;8168;49.036;7.690;2022-09-12T04:26:57;10.73;;;4.33;;
16127;SDS011;8168;49.036;7.690;2022-09-12T04:29:27;3.80;;;3.40;;
16127;SDS011;8168;49.036;7.690;2022-09-12T04:31:59;4.93;;;3.77;;
16127;SDS011;8168;49.036;7.690;2022-09-12T04:34:29;8.60;;;4.10;;
16127;SDS011;8168;49.036;7.690;2022-09-12T04:37:01;4.83;;;3.80;;
16127;SDS011;8168;49.036;7.690;2022-09-12T04:39:32;4.47;;;3.80;;
16127;SDS011;8168;49.036;7.690;2022-09-12T04:42:03;5.63;;;3.63;;
16127;SDS011;8168;49.036;7.690;2022-09-12T04:44:33;6.30;;;3.93;;
16127;SDS011;8168;49.036;7.690;2022-09-12T04:47:04;10.20;;;4.10;;
16127;SDS011;8168;49.036;7.690;2022-09-12T04:49:34;4.37;;;3.53;;
16127;SDS011;8168;49.036;7.690;2022-09-12T04:52:05;11.37;;;6.80;;
16127;SDS011;8168;49.036;7.690;2022-09-12T04:54:37;6.57;;;3.90;;
16127;SDS011;8168;49.036;7.690;2022-09-12T04:57:07;3.60;;;3.20;;
16127;SDS011;8168;49.036;7.690;2022-09-12T04:59:39;8.87;;;5.30;;
16127;SDS011;8168;49.036;7.690;2022-09-12T05:02:09;5.43;;;3.73;;
16127;SDS011;8168;49.036;7.690;2022-09-12T05:04:40;4.20;;;3.80;;
16127;SDS011;8168;49.036;7.690;2022-09-12T05:07:11;8.10;;;4.27;;
16127;SDS011;8168;49.036;7.690;2022-09-12T05:09:41;8.67;;;3.97;;
16127;SDS011;8168;49.036;7.690;2022-09-12T05:12:12;9.57;;;3.30;;
16127;SDS011;8168;49.036;7.690;2022-09-12T05:14:43;11.23;;;3.70;;
16127;SDS011;8168;49.036;7.690;2022-09-12T05:17:14;5.77;;;3.57;;
16127;SDS011;8168;49.036;7.690;2022-09-12T05:19:44;9.57;;;3.80;;
16127;SDS011;8168;49.036;7.690;2022-09-12T05:22:16;4.97;;;3.70;;
16127;SDS011;8168;49.036;7.690;2022-09-12T05:24:47;4.40;;;3.80;;
16127;SDS011;8168;49.036;7.690;2022-09-12T05:27:17;4.23;;;3.50;;
16127;SDS011;8168;49.036;7.690;2022-09-12T05:29:49;6.40;;;3.37;;
16127;SDS011;8168;49.036;7.690;2022-09-12T05:32:20;3.70;;;3.33;;
16127;SDS011;8168;49.036;7.690;2022-09-12T05:34:50;4.33;;;3.77;;
16127;SDS011;8168;49.036;7.690;2022-09-12T05:37:21;6.10;;;4.07;;
16127;SDS011;8168;49.036;7.690;2022-09-12T05:39:52;6.10;;;3.70;;
16127;SDS011;8168;49.036;7.690;2022-09-12T05:42:22;4.10;;;3.70;;
16127;SDS011;8168;49.036;7.690;2022-09-12T05:44:53;4.60;;;3.03;;
16127;SDS011;8168;49.036;7.690;2022-09-12T05:47:23;4.23;;;3.50;;
16127;SDS011;8168;49.036;7.690;2022-09-12T05:49:54;4.20;;;3.80;;
16127;SDS011;8168;49.036;7.690;2022-09-12T05:52:26;7.63;;;3.73;;
16127;SDS011;8168;49.036;7.690;2022-09-12T05:54:57;6.43;;;3.67;;
16127;SDS011;8168;49.036;7.690;2022-09-12T05:57:27;5.50;;;4.37;;
16127;SDS011;8168;49.036;7.690;2022-09-12T05:59:58;4.37;;;3.97;;
16127;SDS011;8168;49.036;7.690;2022-09-12T06:02:28;5.70;;;3.93;;
16127;SDS011;8168;49.036;7.690;2022-09-12T06:04:59;5.43;;;3.60;;
16127;SDS011;8168;49.036;7.690;2022-09-12T06:07:30;4.13;;;3.17;;
16127;SDS011;8168;49.036;7.690;2022-09-12T06:10:02;4.97;;;3.57;;
16127;SDS011;8168;49.036;7.690;2022-09-12T06:12:34;4.23;;;3.80;;
16127;SDS011;8168;49.036;7.690;2022-09-12T06:15:05;3.93;;;3.37;;
16127;SDS011;8168;49.036;7.690;2022-09-12T06:17:36;4.43;;;3.73;;
16127;SDS011;8168;49.036;7.690;2022-09-12T06:20:07;6.30;;;3.53;;
16127;SDS011;8168;49.036;7.690;2022-09-12T06:22:38;5.80;;;3.63;;
16127;SDS011;8168;49.036;7.690;2022-09-12T06:25:09;4.40;;;3.57;;
16127;SDS011;8168;49.036;7.690;2022-09-12T06:27:39;4.73;;;3.90;;
16127;SDS011;8168;49.036;7.690;2022-09-12T06:30:10;3.53;;;3.23;;
16127;SDS011;8168;49.036;7.690;2022-09-12T06:32:41;5.03;;;4.17;;
16127;SDS011;8168;49.036;7.690;2022-09-12T06:35:11;4.10;;;3.70;;
16127;SDS011;8168;49.036;7.690;2022-09-12T06:37:43;4.03;;;3.67;;
16127;SDS011;8168;49.036;7.690;2022-09-12T06:40:14;5.33;;;4.03;;
16127;SDS011;8168;49.036;7.690;2022-09-12T06:42:45;4.30;;;3.90;;
16127;SDS011;8168;49.036;7.690;2022-09-12T06:45:15;6.70;;;4.10;;
16127;SDS011;8168;49.036;7.690;2022-09-12T06:47:48;5.30;;;4.00;;
16127;SDS011;8168;49.036;7.690;2022-09-12T06:50:19;4.90;;;3.57;;
16127;SDS011;8168;49.036;7.690;2022-09-12T06:52:52;4.13;;;3.73;;
16127;SDS011;8168;49.036;7.690;2022-09-12T06:55:22;7.17;;;3.70;;
16127;SDS011;8168;49.036;7.690;2022-09-12T06:57:53;4.13;;;3.67;;
16127;SDS011;8168;49.036;7.690;2022-09-12T07:00:27;3.67;;;3.30;;
16127;SDS011;8168;49.036;7.690;2022-09-12T07:02:58;4.53;;;4.07;;
16127;SDS011;8168;49.036;7.690;2022-09-12T07:05:28;8.07;;;3.93;;
16127;SDS011;8168;49.036;7.690;2022-09-12T07:07:59;4.50;;;4.10;;
16127;SDS011;8168;49.036;7.690;2022-09-12T07:10:29;6.50;;;4.40;;
16127;SDS011;8168;49.036;7.690;2022-09-12T07:13:00;4.23;;;3.83;;
16127;SDS011;8168;49.036;7.690;2022-09-12T07:15:30;5.93;;;4.83;;
16127;SDS011;8168;49.036;7.690;2022-09-12T07:18:04;5.13;;;4.60;;
16127;SDS011;8168;49.036;7.690;2022-09-12T07:20:34;5.90;;;4.50;;
16127;SDS011;8168;49.036;7.690;2022-09-12T07:23:06;6.97;;;4.90;;
16127;SDS011;8168;49.036;7.690;2022-09-12T07:25:37;6.07;;;4.30;;
16127;SDS011;8168;49.036;7.690;2022-09-12T07:28:08;8.07;;;5.57;;
16127;SDS011;8168;49.036;7.690;2022-09-12T07:30:38;7.20;;;4.80;;
16127;SDS011;8168;49.036;7.690;2022-09-12T07:33:09;6.13;;;4.93;;
16127;SDS011;8168;49.036;7.690;2022-09-12T07:35:40;6.23;;;5.00;;
16127;SDS011;8168;49.036;7.690;2022-09-12T07:38:10;5.50;;;5.00;;
16127;SDS011;8168;49.036;7.690;2022-09-12T07:40:41;5.97;;;5.37;;
16127;SDS011;8168;49.036;7.690;2022-09-12T07:43:12;6.63;;;5.90;;
16127;SDS011;8168;49.036;7.690;2022-09-12T07:45:43;7.80;;;5.93;;
16127;SDS011;8168;49.036;7.690;2022-09-12T07:48:14;6.10;;;5.50;;
16127;SDS011;8168;49.036;7.690;2022-09-12T07:50:45;6.50;;;5.90;;
16127;SDS011;8168;49.036;7.690;2022-09-12T07:53:16;6.83;;;6.13;;
16127;SDS011;8168;49.036;7.690;2022-09-12T07:55:51;9.37;;;6.10;;
16127;SDS011;8168;49.036;7.690;2022-09-12T07:58:23;6.97;;;5.87;;
16127;SDS011;8168;49.036;7.690;2022-09-12T08:01:00;7.00;;;6.30;;
16127;SDS011;8168;49.036;7.690;2022-09-12T08:03:35;8.47;;;6.53;;
16127;SDS011;8168;49.036;7.690;2022-09-12T08:06:07;8.00;;;6.40;;
16127;SDS011;8168;49.036;7.690;2022-09-12T08:08:42;6.83;;;6.13;;
16127;SDS011;8168;49.036;7.690;2022-09-12T08:11:14;7.53;;;6.73;;
16127;SDS011;8168;49.036;7.690;2022-09-12T08:13:46;8.37;;;6.90;;
16127;SDS011;8168;49.036;7.690;2022-09-12T08:16:18;6.87;;;6.17;;
16127;SDS011;8168;49.036;7.690;2022-09-12T08:18:51;7.73;;;6.40;;
16127;SDS011;8168;49.036;7.690;2022-09-12T08:21:23;7.17;;;6.40;;
16127;SDS011;8168;49.036;7.690;2022-09-12T08:23:57;6.10;;;5.50;;
16127;SDS011;8168;49.036;7.690;2022-09-12T08:26:30;5.97;;;5.37;;
16127;SDS011;8168;49.036;7.690;2022-09-12T08:29:02;6.20;;;5.37;;
16127;SDS011;8168;49.036;7.690;2022-09-12T08:31:33;5.53;;;5.03;;
16127;SDS011;8168;49.036;7.690;2022-09-12T08:34:05;5.40;;;4.83;;
16127;SDS011;8168;49.036;7.690;2022-09-12T08:36:37;5.83;;;5.23;;
16127;SDS011;8168;49.036;7.690;2022-09-12T08:39:07;5.77;;;5.17;;
16127;SDS011;8168;49.036;7.690;2022-09-12T08:41:44;5.53;;;5.03;;
16127;SDS011;8168;49.036;7.690;2022-09-12T08:52:51;4.90;;;4.50;;
16127;SDS011;8168;49.036;7.690;2022-09-12T08:55:33;5.80;;;4.60;;
16127;SDS011;8168;49.036;7.690;2022-09-12T08:58:11;4.53;;;4.03;;
16127;SDS011;8168;49.036;7.690;2022-09-12T09:06:51;3.67;;;3.37;;
16127;SDS011;8168;49.036;7.690;2022-09-12T09:12:35;4.27;;;3.87;;
16127;SDS011;8168;49.036;7.690;2022-09-12T09:18:21;3.93;;;3.37;;
16127;SDS011;8168;49.036;7.690;2022-09-12T09:23:43;3.77;;;3.47;;
16127;SDS011;8168;49.036;7.690;2022-09-12T09:26:20;3.53;;;3.23;;
16127;SDS011;8168;49.036;7.690;2022-09-12T09:29:01;4.13;;;3.30;;
16127;SDS011;8168;49.036;7.690;2022-09-12T09:31:44;4.10;;;3.70;;
16127;SDS011;8168;49.036;7.690;2022-09-12T09:34:21;3.90;;;3.50;;
16127;SDS011;8168;49.036;7.690;2022-09-12T09:36:58;3.73;;;3.43;;
16127;SDS011;8168;49.036;7.690;2022-09-12T09:39:40;3.63;;;3.33;;
16127;SDS011;8168;49.036;7.690;2022-09-12T09:42:25;3.57;;;3.27;;
16127;SDS011;8168;49.036;7.690;2022-09-12T09:45:02;3.23;;;2.93;;
16127;SDS011;8168;49.036;7.690;2022-09-12T09:48:24;3.50;;;2.80;;
16127;SDS011;8168;49.036;7.690;2022-09-12T09:50:35;2.47;;;2.27;;
16127;SDS011;8168;49.036;7.690;2022-09-12T09:53:08;2.90;;;2.33;;
16127;SDS011;8168;49.036;7.690;2022-09-12T09:55:51;2.90;;;2.70;;
16127;SDS011;8168;49.036;7.690;2022-09-12T09:58:27;2.67;;;2.47;;
16127;SDS011;8168;49.036;7.690;2022-09-12T10:01:05;2.47;;;2.20;;
16127;SDS011;8168;49.036;7.690;2022-09-12T10:03:50;2.73;;;2.53;;
16127;SDS011;8168;49.036;7.690;2022-09-12T10:06:25;2.93;;;2.63;;
16127;SDS011;8168;49.036;7.690;2022-09-12T10:09:45;4.00;;;2.37;;
16127;SDS011;8168;49.036;7.690;2022-09-12T10:11:56;2.97;;;2.70;;
16127;SDS011;8168;49.036;7.690;2022-09-12T10:14:29;2.50;;;2.30;;
16127;SDS011;8168;49.036;7.690;2022-09-12T10:19:58;4.30;;;2.23;;
16127;SDS011;8168;49.036;7.690;2022-09-12T10:22:28;3.30;;;2.30;;
16127;SDS011;8168;49.036;7.690;2022-09-12T10:24:59;2.47;;;2.27;;
16127;SDS011;8168;49.036;7.690;2022-09-12T10:27:30;2.50;;;2.30;;
16127;SDS011;8168;49.036;7.690;2022-09-12T10:32:58;4.20;;;2.08;;
16127;SDS011;8168;49.036;7.690;2022-09-12T10:35:42;2.42;;;1.90;;
16127;SDS011;8168;49.036;7.690;2022-09-12T10:38:20;1.88;;;1.77;;
16127;SDS011;8168;49.036;7.690;2022-09-12T10:40:55;1.90;;;1.80;;
16127;SDS011;8168;49.036;7.690;2022-09-12T10:43:29;2.20;;;2.00;;
16127;SDS011;8168;49.036;7.690;2022-09-12T10:48:47;2.88;;;2.47;;
16127;SDS011;8168;49.036;7.690;2022-09-12T10:53:57;3.00;;;2.45;;
16127;SDS011;8168;49.036;7.690;2022-09-12T10:56:30;2.58;;;2.38;;
16127;SDS011;8168;49.036;7.690;2022-09-12T11:05:37;2.45;;;2.25;;
16127;SDS011;8168;49.036;7.690;2022-09-12T11:10:58;2.33;;;2.13;;
16127;SDS011;8168;49.036;7.690;2022-09-12T11:27:17;1.63;;;1.52;;
16127;SDS011;8168;49.036;7.690;2022-09-12T11:35:24;1.45;;;1.35;;
16127;SDS011;8168;49.036;7.690;2022-09-12T11:41:16;2.63;;;1.60;;
16127;SDS011;8168;49.036;7.690;2022-09-12T11:44:17;1.60;;;1.50;;
16127;SDS011;8168;49.036;7.690;2022-09-12T11:46:53;1.65;;;1.50;;
16127;SDS011;8168;49.036;7.690;2022-09-12T11:49:46;3.60;;;1.60;;
16127;SDS011;8168;49.036;7.690;2022-09-12T11:52:22;2.15;;;1.85;;
16127;SDS011;8168;49.036;7.690;2022-09-12T11:55:09;2.20;;;2.03;;
16127;SDS011;8168;49.036;7.690;2022-09-12T11:57:51;2.13;;;1.75;;
16127;SDS011;8168;49.036;7.690;2022-09-12T12:00:29;1.52;;;1.42;;
16127;SDS011;8168;49.036;7.690;2022-09-12T12:03:07;2.00;;;1.90;;
16127;SDS011;8168;49.036;7.690;2022-09-12T12:06:16;2.13;;;1.92;;
16127;SDS011;8168;49.036;7.690;2022-09-12T12:08:54;1.75;;;1.65;;
16127;SDS011;8168;49.036;7.690;2022-09-12T12:11:29;2.92;;;1.75;;
16127;SDS011;8168;49.036;7.690;2022-09-12T12:14:19;2.95;;;1.40;;
16127;SDS011;8168;49.036;7.690;2022-09-12T12:17:21;1.60;;;1.50;;
16127;SDS011;8168;49.036;7.690;2022-09-12T12:19:57;2.00;;;1.77;;
16127;SDS011;8168;49.036;7.690;2022-09-12T12:22:30;1.88;;;1.60;;
16127;SDS011;8168;49.036;7.690;2022-09-12T12:35:40;1.90;;;1.60;;
16127;SDS011;8168;49.036;7.690;2022-09-12T12:43:49;0.90;;;0.90;;
16127;SDS011;8168;49.036;7.690;2022-09-12T12:46:21;1.13;;;1.10;;
16127;SDS011;8168;49.036;7.690;2022-09-12T12:49:01;1.40;;;1.30;;
16127;SDS011;8168;49.036;7.690;2022-09-12T12:51:53;1.95;;;1.65;;
16127;SDS011;8168;49.036;7.690;2022-09-12T12:54:28;1.58;;;1.35;;
16127;SDS011;8168;49.036;7.690;2022-09-12T12:59:35;1.58;;;1.48;;
16127;SDS011;8168;49.036;7.690;2022-09-12T13:02:13;1.48;;;1.38;;
16127;SDS011;8168;49.036;7.690;2022-09-12T13:04:50;1.42;;;1.33;;
16127;SDS011;8168;49.036;7.690;2022-09-12T13:07:27;1.50;;;1.40;;
16127;SDS011;8168;49.036;7.690;2022-09-12T13:10:04;1.98;;;1.70;;
16127;SDS011;8168;49.036;7.690;2022-09-12T13:12:37;1.60;;;1.50;;
16127;SDS011;8168;49.036;7.690;2022-09-12T13:18:09;1.38;;;1.27;;
16127;SDS011;8168;49.036;7.690;2022-09-12T13:21:08;1.65;;;1.40;;
16127;SDS011;8168;49.036;7.690;2022-09-12T13:23:41;1.40;;;1.30;;
16127;SDS011;8168;49.036;7.690;2022-09-12T13:26:22;1.85;;;1.38;;
16127;SDS011;8168;49.036;7.690;2022-09-12T13:31:42;1.50;;;1.40;;
16127;SDS011;8168;49.036;7.690;2022-09-12T13:34:23;1.40;;;1.30;;
16127;SDS011;8168;49.036;7.690;2022-09-12T13:42:52;1.50;;;1.40;;
16127;SDS011;8168;49.036;7.690;2022-09-12T13:45:37;2.58;;;1.38;;
16127;SDS011;8168;49.036;7.690;2022-09-12T13:48:15;1.58;;;1.40;;
16127;SDS011;8168;49.036;7.690;2022-09-12T13:50:51;1.50;;;1.40;;
16127;SDS011;8168;49.036;7.690;2022-09-12T13:53:38;1.50;;;1.40;;
16127;SDS011;8168;49.036;7.690;2022-09-12T13:56:16;1.83;;;1.73;;
16127;SDS011;8168;49.036;7.690;2022-09-12T14:01:38;1.42;;;1.33;;
16127;SDS011;8168;49.036;7.690;2022-09-12T14:04:24;2.25;;;1.73;;
16127;SDS011;8168;49.036;7.690;2022-09-12T14:07:15;1.95;;;1.38;;
16127;SDS011;8168;49.036;7.690;2022-09-12T14:09:53;1.30;;;1.20;;
16127;SDS011;8168;49.036;7.690;2022-09-12T14:12:36;0.98;;;0.98;;
16127;SDS011;8168;49.036;7.690;2022-09-12T14:15:16;1.40;;;1.30;;
16127;SDS011;8168;49.036;7.690;2022-09-12T14:17:56;1.60;;;1.50;;
16127;SDS011;8168;49.036;7.690;2022-09-12T14:20:30;1.58;;;1.48;;
16127;SDS011;8168;49.036;7.690;2022-09-12T14:23:08;1.80;;;1.40;;
16127;SDS011;8168;49.036;7.690;2022-09-12T14:25:50;1.65;;;1.55;;
16127;SDS011;8168;49.036;7.690;2022-09-12T14:28:21;1.10;;;1.00;;
16127;SDS011;8168;49.036;7.690;2022-09-12T14:30:56;1.30;;;1.20;;
16127;SDS011;8168;49.036;7.690;2022-09-12T14:33:53;2.00;;;1.45;;
16127;SDS011;8168;49.036;7.690;2022-09-12T14:36:30;3.35;;;1.70;;
16127;SDS011;8168;49.036;7.690;2022-09-12T14:39:06;1.50;;;1.40;;
16127;SDS011;8168;49.036;7.690;2022-09-12T14:42:03;1.88;;;1.38;;
16127;SDS011;8168;49.036;7.690;2022-09-12T14:44:52;1.40;;;1.30;;
16127;SDS011;8168;49.036;7.690;2022-09-12T14:47:27;1.80;;;1.70;;
16127;SDS011;8168;49.036;7.690;2022-09-12T14:50:16;1.48;;;1.38;;
16127;SDS011;8168;49.036;7.690;2022-09-12T14:53:06;1.85;;;1.48;;
16127;SDS011;8168;49.036;7.690;2022-09-12T14:55:50;1.50;;;1.40;;
16127;SDS011;8168;49.036;7.690;2022-09-12T14:58:23;1.23;;;1.23;;
16127;SDS011;8168;49.036;7.690;2022-09-12T15:06:17;1.70;;;1.60;;
16127;SDS011;8168;49.036;7.690;2022-09-12T15:09:05;1.92;;;1.70;;
16127;SDS011;8168;49.036;7.690;2022-09-12T15:11:37;1.88;;;1.77;;
16127;SDS011;8168;49.036;7.690;2022-09-12T15:14:12;1.70;;;1.60;;
16127;SDS011;8168;49.036;7.690;2022-09-12T15:16:43;1.58;;;1.48;;
16127;SDS011;8168;49.036;7.690;2022-09-12T15:19:14;1.63;;;1.52;;
16127;SDS011;8168;49.036;7.690;2022-09-12T15:21:45;2.15;;;1.48;;
16127;SDS011;8168;49.036;7.690;2022-09-12T15:24:15;1.90;;;1.50;;
16127;SDS011;8168;49.036;7.690;2022-09-12T15:26:46;1.67;;;1.58;;
16127;SDS011;8168;49.036;7.690;2022-09-12T15:29:16;1.80;;;1.70;;
16127;SDS011;8168;49.036;7.690;2022-09-12T15:31:47;1.60;;;1.50;;
16127;SDS011;8168;49.036;7.690;2022-09-12T15:34:20;1.80;;;1.70;;
16127;SDS011;8168;49.036;7.690;2022-09-12T15:36:50;1.60;;;1.50;;
16127;SDS011;8168;49.036;7.690;2022-09-12T15:39:21;4.28;;;1.70;;
16127;SDS011;8168;49.036;7.690;2022-09-12T15:41:52;2.72;;;1.50;;
16127;SDS011;8168;49.036;7.690;2022-09-12T15:44:22;3.42;;;1.67;;
16127;SDS011;8168;49.036;7.690;2022-09-12T15:46:53;2.08;;;1.70;;
16127;SDS011;8168;49.036;7.690;2022-09-12T15:49:24;1.75;;;1.65;;
16127;SDS011;8168;49.036;7.690;2022-09-12T15:51:54;4.05;;;1.15;;
16127;SDS011;8168;49.036;7.690;2022-09-12T15:54:25;1.50;;;1.40;;
16127;SDS011;8168;49.036;7.690;2022-09-12T15:56:56;2.55;;;1.30;;
16127;SDS011;8168;49.036;7.690;2022-09-12T15:59:26;5.10;;;1.10;;
16127;SDS011;8168;49.036;7.690;2022-09-12T16:01:57;2.05;;;1.35;;
16127;SDS011;8168;49.036;7.690;2022-09-12T16:04:28;1.60;;;1.50;;
16127;SDS011;8168;49.036;7.690;2022-09-12T16:06:59;1.40;;;1.30;;
16127;SDS011;8168;49.036;7.690;2022-09-12T16:09:30;1.83;;;1.50;;
16127;SDS011;8168;49.036;7.690;2022-09-12T16:12:01;2.25;;;1.40;;
16127;SDS011;8168;49.036;7.690;2022-09-12T16:14:31;4.00;;;3.20;;
16127;SDS011;8168;49.036;7.690;2022-09-12T16:17:02;2.67;;;2.35;;
16127;SDS011;8168;49.036;7.690;2022-09-12T16:19:32;2.30;;;2.10;;
16127;SDS011;8168;49.036;7.690;2022-09-12T16:22:03;1.80;;;1.67;;
16127;SDS011;8168;49.036;7.690;2022-09-12T16:24:34;2.53;;;2.08;;
16127;SDS011;8168;49.036;7.690;2022-09-12T16:27:04;1.48;;;1.38;;
16127;SDS011;8168;49.036;7.690;2022-09-12T16:29:35;1.80;;;1.70;;
16127;SDS011;8168;49.036;7.690;2022-09-12T16:32:06;2.40;;;1.60;;
16127;SDS011;8168;49.036;7.690;2022-09-12T16:34:36;2.05;;;1.88;;
16127;SDS011;8168;49.036;7.690;2022-09-12T16:37:07;1.92;;;1.83;;
16127;SDS011;8168;49.036;7.690;2022-09-12T16:39:38;1.58;;;1.48;;
16127;SDS011;8168;49.036;7.690;2022-09-12T16:42:08;1.92;;;1.80;;
16127;SDS011;8168;49.036;7.690;2022-09-12T16:44:39;2.38;;;2.13;;
16127;SDS011;8168;49.036;7.690;2022-09-12T16:47:10;2.35;;;2.10;;
16127;SDS011;8168;49.036;7.690;2022-09-12T16:49:40;2.42;;;2.22;;
16127;SDS011;8168;49.036;7.690;2022-09-12T16:52:11;2.75;;;2.47;;
16127;SDS011;8168;49.036;7.690;2022-09-12T16:54:45;2.85;;;2.33;;
16127;SDS011;8168;49.036;7.690;2022-09-12T16:57:15;2.08;;;1.90;;
16127;SDS011;8168;49.036;7.690;2022-09-12T16:59:46;1.77;;;1.65;;
16127;SDS011;8168;49.036;7.690;2022-09-12T17:02:17;3.83;;;3.05;;
16127;SDS011;8168;49.036;7.690;2022-09-12T17:04:47;2.42;;;2.00;;
16127;SDS011;8168;49.036;7.690;2022-09-12T17:07:18;3.35;;;2.00;;
16127;SDS011;8168;49.036;7.690;2022-09-12T17:09:48;2.30;;;1.50;;
16127;SDS011;8168;49.036;7.690;2022-09-12T17:12:20;1.92;;;1.60;;
16127;SDS011;8168;49.036;7.690;2022-09-12T17:14:50;3.92;;;2.30;;
16127;SDS011;8168;49.036;7.690;2022-09-12T17:17:21;3.10;;;1.70;;
16127;SDS011;8168;49.036;7.690;2022-09-12T17:19:52;3.40;;;1.50;;
16127;SDS011;8168;49.036;7.690;2022-09-12T17:22:22;2.27;;;1.70;;
16127;SDS011;8168;49.036;7.690;2022-09-12T17:24:53;1.60;;;1.50;;
16127;SDS011;8168;49.036;7.690;2022-09-12T17:27:23;3.97;;;1.70;;
16127;SDS011;8168;49.036;7.690;2022-09-12T17:29:54;4.10;;;2.00;;
16127;SDS011;8168;49.036;7.690;2022-09-12T17:32:25;4.03;;;1.77;;
16127;SDS011;8168;49.036;7.690;2022-09-12T17:34:58;4.17;;;2.00;;
16127;SDS011;8168;49.036;7.690;2022-09-12T17:37:29;2.30;;;2.10;;
16127;SDS011;8168;49.036;7.690;2022-09-12T17:40:03;3.73;;;3.37;;
16127;SDS011;8168;49.036;7.690;2022-09-12T17:42:34;7.40;;;4.50;;
16127;SDS011;8168;49.036;7.690;2022-09-12T17:45:05;15.20;;;9.10;;
16127;SDS011;8168;49.036;7.690;2022-09-12T17:47:39;6.77;;;4.23;;
16127;SDS011;8168;49.036;7.690;2022-09-12T17:50:10;3.23;;;2.70;;
16127;SDS011;8168;49.036;7.690;2022-09-12T17:52:40;4.50;;;2.43;;
16127;SDS011;8168;49.036;7.690;2022-09-12T17:55:11;2.20;;;2.00;;
16127;SDS011;8168;49.036;7.690;2022-09-12T17:57:42;3.60;;;2.40;;
16127;SDS011;8168;49.036;7.690;2022-09-12T18:00:14;2.50;;;2.30;;
16127;SDS011;8168;49.036;7.690;2022-09-12T18:02:45;2.53;;;2.33;;
16127;SDS011;8168;49.036;7.690;2022-09-12T18:05:16;3.00;;;2.20;;
16127;SDS011;8168;49.036;7.690;2022-09-12T18:07:46;3.53;;;2.10;;
16127;SDS011;8168;49.036;7.690;2022-09-12T18:10:17;3.20;;;1.90;;
16127;SDS011;8168;49.036;7.690;2022-09-12T18:12:48;2.47;;;2.27;;